Kaihou — 7JCA — position and weather

sailwx.info

Track history (hours):
 
Tides and Currents Weather Stations Pressure Air Temp Water Temp Dewpoint Dewpoint Depression Visibility Wind Speed Wind Dir Waves Ship Positions

Kaihou

Last reported at 2017-Nov-06 00:57 UTC. Time now 2017-Nov-22 14:51 UTC.
Position N 35°11' E 139°46'.
Warning: this ship's position is 16 days out of date.

Length 33 m; draft 3.8 m.

Type: Towing. MMSI: 431402046.

Date/timePositionNaut miles runAvg speedWind from/ knotsBaromVisibWave heightAir tempDewpointWater temp
2017-Nov-06 00:57N 35°11' E 139°46'3 7.4
2017-Nov-06 00:30N 35°15' E 139°46'4 7.5
2017-Nov-06 00:00N 35°18' E 139°44'3 7.0
2017-Nov-05 23:31N 35°21' E 139°42'3 6.9
2017-Nov-05 23:01N 35°24' E 139°42'3 6.2
2017-Nov-05 22:31N 35°27' E 139°40'0 0.8
2017-Nov-05 22:01N 35°27' E 139°40'0 0.0
2017-Nov-05 21:31N 35°27' E 139°40'0 0.0
2017-Nov-05 21:01N 35°27' E 139°40'1 1.9
2017-Nov-05 20:31N 35°27' E 139°41'510.1
2017-Nov-05 20:00N 35°27' E 139°47'510.2
2017-Nov-05 19:29N 35°28' E 139°53'5 0.1
2017-Nov-04 03:45N 35°28' E 139°59'310.5
2017-Nov-04 03:30N 35°30' E 139°57'510.7
2017-Nov-04 02:59N 35°34' E 139°52'3 3.4
2017-Nov-04 01:59N 35°37' E 139°49'1 2.8
2017-Nov-04 01:28N 35°36' E 139°51'1 1.9
2017-Nov-04 00:42N 35°37' E 139°49'1 5.0
2017-Nov-04 00:30N 35°36' E 139°50'1 0.5
2017-Nov-03 22:07N 35°35' E 139°51'0 0.0
2017-Nov-03 21:58N 35°35' E 139°51'0 0.0
2017-Nov-03 21:22N 35°35' E 139°51'0 0.0
2017-Nov-03 20:58N 35°35' E 139°51'0 0.0
2017-Nov-03 20:25N 35°35' E 139°51'0 0.0
2017-Nov-03 19:58N 35°35' E 139°51'0 0.0
2017-Nov-03 19:16N 35°35' E 139°51'0 0.0
2017-Nov-03 18:58N 35°35' E 139°51'0 0.0
2017-Nov-03 15:14N 35°36' E 139°51'0 0.7
2017-Nov-03 15:00N 35°35' E 139°51'4 4.9
2017-Nov-03 14:06N 35°31' E 139°53'1 5.9
2017-Nov-03 14:00N 35°30' E 139°53'3 5.6
2017-Nov-03 13:30N 35°28' E 139°51'3 5.5
2017-Nov-03 13:00N 35°26' E 139°49'3 5.3
2017-Nov-03 12:30N 35°24' E 139°46'3 5.1
2017-Nov-03 12:00N 35°22' E 139°45'2 5.0
2017-Nov-03 11:31N 35°19' E 139°44'2 4.7
2017-Nov-03 11:00N 35°17' E 139°45'2 4.2
2017-Nov-03 10:30N 35°15' E 139°47'2 4.0
2017-Nov-03 10:00N 35°14' E 139°47'2 4.6
2017-Nov-03 09:30N 35°11' E 139°47'2 4.7
2017-Nov-03 09:00N 35°09' E 139°47'2 4.4
2017-Nov-03 08:30N 35°07' E 139°46'3 5.1
2017-Nov-03 08:00N 35°04' E 139°45'3 5.4
2017-Nov-03 07:30N 35°03' E 139°42'3 5.7
2017-Nov-03 07:00N 35°01' E 139°39'3 5.8
2017-Nov-03 06:30N 34°60' E 139°36'3 5.1
2017-Nov-03 05:58N 34°58' E 139°34'3 5.0
2017-Nov-03 05:21N 34°56' E 139°31'  
Track history (hours):
 
Tides and Currents Weather Stations Pressure Air Temp Water Temp Dewpoint Dewpoint Depression Visibility Wind Speed Wind Dir Waves Ship Positions

Kaihou

Last reported at 2017-Nov-06 00:57 UTC. Time now 2017-Nov-22 14:51 UTC.
Position N 35°11' E 139°46'.
Warning: this ship's position is 16 days out of date.

Length 33 m; draft 3.8 m.

Type: Towing. MMSI: 431402046.

Date/timePositionNaut miles runAvg speedWind from/ knotsBaromVisibWave heightAir tempDewpointWater temp
2017-Nov-06 00:57N 35°11' E 139°46'3 7.4
2017-Nov-06 00:30N 35°15' E 139°46'4 7.5
2017-Nov-06 00:00N 35°18' E 139°44'3 7.0
2017-Nov-05 23:31N 35°21' E 139°42'3 6.9
2017-Nov-05 23:01N 35°24' E 139°42'3 6.2
2017-Nov-05 22:31N 35°27' E 139°40'0 0.8
2017-Nov-05 22:01N 35°27' E 139°40'0 0.0
2017-Nov-05 21:31N 35°27' E 139°40'0 0.0
2017-Nov-05 21:01N 35°27' E 139°40'1 1.9
2017-Nov-05 20:31N 35°27' E 139°41'510.1
2017-Nov-05 20:00N 35°27' E 139°47'510.2
2017-Nov-05 19:29N 35°28' E 139°53'5 0.1
2017-Nov-04 03:45N 35°28' E 139°59'310.5
2017-Nov-04 03:30N 35°30' E 139°57'510.7
2017-Nov-04 02:59N 35°34' E 139°52'3 3.4
2017-Nov-04 01:59N 35°37' E 139°49'1 2.8
2017-Nov-04 01:28N 35°36' E 139°51'1 1.9
2017-Nov-04 00:42N 35°37' E 139°49'1 5.0
2017-Nov-04 00:30N 35°36' E 139°50'1 0.5
2017-Nov-03 22:07N 35°35' E 139°51'0 0.0
2017-Nov-03 21:58N 35°35' E 139°51'0 0.0
2017-Nov-03 21:22N 35°35' E 139°51'0 0.0
2017-Nov-03 20:58N 35°35' E 139°51'0 0.0
2017-Nov-03 20:25N 35°35' E 139°51'0 0.0
2017-Nov-03 19:58N 35°35' E 139°51'0 0.0
2017-Nov-03 19:16N 35°35' E 139°51'0 0.0
2017-Nov-03 18:58N 35°35' E 139°51'0 0.0
2017-Nov-03 15:14N 35°36' E 139°51'0 0.7
2017-Nov-03 15:00N 35°35' E 139°51'4 4.9
2017-Nov-03 14:06N 35°31' E 139°53'1 5.9
2017-Nov-03 14:00N 35°30' E 139°53'3 5.6
2017-Nov-03 13:30N 35°28' E 139°51'3 5.5
2017-Nov-03 13:00N 35°26' E 139°49'3 5.3
2017-Nov-03 12:30N 35°24' E 139°46'3 5.1
2017-Nov-03 12:00N 35°22' E 139°45'2 5.0
2017-Nov-03 11:31N 35°19' E 139°44'2 4.7
2017-Nov-03 11:00N 35°17' E 139°45'2 4.2
2017-Nov-03 10:30N 35°15' E 139°47'2 4.0
2017-Nov-03 10:00N 35°14' E 139°47'2 4.6
2017-Nov-03 09:30N 35°11' E 139°47'2 4.7
2017-Nov-03 09:00N 35°09' E 139°47'2 4.4
2017-Nov-03 08:30N 35°07' E 139°46'3 5.1
2017-Nov-03 08:00N 35°04' E 139°45'3 5.4
2017-Nov-03 07:30N 35°03' E 139°42'3 5.7
2017-Nov-03 07:00N 35°01' E 139°39'3 5.8
2017-Nov-03 06:30N 34°60' E 139°36'3 5.1
2017-Nov-03 05:58N 34°58' E 139°34'3 5.0
2017-Nov-03 05:21N 34°56' E 139°31'  

Dump ship's entire track history